createdAt,value
2022-12-26T00:03:09.326Z,11.0
2022-12-26T00:08:09.424Z,8.8
2022-12-26T00:13:38.445Z,8.0
2022-12-26T00:23:09.239Z,11.8
2022-12-26T00:28:09.318Z,11.1
2022-12-26T00:33:09.292Z,11.1
2022-12-26T00:38:09.319Z,9.5
2022-12-26T00:43:09.239Z,12.4
2022-12-26T00:48:09.317Z,9.2
2022-12-26T00:53:09.241Z,10.7
2022-12-26T00:58:09.428Z,15.0
2022-12-26T01:03:09.283Z,15.0
2022-12-26T01:08:20.103Z,13.0
2022-12-26T01:18:09.309Z,9.4
2022-12-26T01:23:09.249Z,10.6
2022-12-26T01:33:09.249Z,8.4
2022-12-26T01:38:09.314Z,11.2
2022-12-26T01:43:09.298Z,12.3
2022-12-26T01:48:09.310Z,10.4
2022-12-26T01:53:09.267Z,12.4
2022-12-26T01:58:09.413Z,12.8
2022-12-26T02:03:09.401Z,12.8
2022-12-26T02:08:09.309Z,8.8
2022-12-26T02:13:09.269Z,10.3
2022-12-26T02:18:09.315Z,11.1
2022-12-26T02:23:09.285Z,10.9
2022-12-26T02:28:09.378Z,12.0
2022-12-26T02:33:09.292Z,12.0
2022-12-26T02:38:09.388Z,8.4
2022-12-26T02:43:09.299Z,11.0
2022-12-26T02:48:09.371Z,7.4
2022-12-26T02:53:09.324Z,8.3
2022-12-26T02:58:09.402Z,7.9
2022-12-26T03:03:09.343Z,7.9
2022-12-26T03:08:09.390Z,8.5
2022-12-26T03:13:09.300Z,7.2
2022-12-26T03:18:09.346Z,4.8
2022-12-26T03:23:09.300Z,2.2
2022-12-26T03:28:09.403Z,0.5
2022-12-26T03:33:09.283Z,0.5
2022-12-26T03:38:09.386Z,0.3
2022-12-26T03:43:09.296Z,1.9
2022-12-26T03:48:09.407Z,0.4
2022-12-26T03:53:09.304Z,0.4
2022-12-26T03:58:09.369Z,0.6
2022-12-26T04:03:09.346Z,0.6
2022-12-26T04:08:13.399Z,0.6
2022-12-26T04:13:09.331Z,0.3
2022-12-26T04:18:09.356Z,0.3
2022-12-26T04:23:09.313Z,1.7
2022-12-26T04:28:09.670Z,0.9
2022-12-26T04:33:09.351Z,0.9
2022-12-26T04:38:09.399Z,0.3
2022-12-26T04:43:49.476Z,0.3
2022-12-26T04:48:09.374Z,0.7
2022-12-26T04:58:09.410Z,0.8
2022-12-26T05:03:14.573Z,0.8
2022-12-26T05:13:09.313Z,5.8
2022-12-26T05:18:09.402Z,3.6
2022-12-26T05:23:09.342Z,2.5
2022-12-26T05:28:09.415Z,2.7
2022-12-26T05:33:09.371Z,2.7
2022-12-26T05:38:09.378Z,1.7
2022-12-26T05:43:09.360Z,3.9
2022-12-26T05:48:09.385Z,2.5
2022-12-26T05:53:09.339Z,2.2
2022-12-26T05:58:09.381Z,2.9
2022-12-26T06:03:09.466Z,2.9
2022-12-26T06:08:09.397Z,2.5
2022-12-26T06:13:09.346Z,3.2
2022-12-26T06:18:09.424Z,1.7
2022-12-26T06:23:09.350Z,3.3
2022-12-26T06:28:09.436Z,2.8
2022-12-26T06:33:09.359Z,2.8
2022-12-26T06:38:09.390Z,3.6
2022-12-26T06:43:09.333Z,4.9
2022-12-26T06:48:09.392Z,2.7
2022-12-26T06:53:09.337Z,4.6
2022-12-26T06:58:09.386Z,2.3
2022-12-26T07:03:09.394Z,2.3
2022-12-26T07:08:09.389Z,3.0
2022-12-26T07:13:09.325Z,1.8
2022-12-26T07:18:09.389Z,4.5
2022-12-26T07:23:09.350Z,3.1
2022-12-26T07:28:09.410Z,5.5
2022-12-26T07:33:09.352Z,5.5
2022-12-26T07:38:09.415Z,1.5
2022-12-26T07:43:09.333Z,3.1
2022-12-26T07:48:09.400Z,3.7
2022-12-26T07:53:09.344Z,7.9
2022-12-26T07:58:09.398Z,3.8
2022-12-26T08:03:09.527Z,3.8
2022-12-26T08:08:09.415Z,3.5
2022-12-26T08:13:09.386Z,3.8
2022-12-26T08:18:09.503Z,3.0
2022-12-26T08:23:09.356Z,2.5
2022-12-26T08:28:09.422Z,3.0
2022-12-26T08:33:09.365Z,3.0
2022-12-26T08:38:09.452Z,5.4
2022-12-26T08:43:30.291Z,6.4
2022-12-26T08:48:09.404Z,4.4
2022-12-26T08:53:09.342Z,6.2
2022-12-26T08:58:09.546Z,3.6
2022-12-26T09:03:09.377Z,3.6
2022-12-26T09:08:09.438Z,9.1
2022-12-26T09:13:09.346Z,6.7
2022-12-26T09:18:09.441Z,11.0
2022-12-26T09:23:09.361Z,3.5
2022-12-26T09:28:09.422Z,8.3
2022-12-26T09:33:09.355Z,8.3
2022-12-26T09:38:09.452Z,10.5
2022-12-26T09:43:09.359Z,9.7
2022-12-26T09:48:09.440Z,5.3
2022-12-26T09:53:09.355Z,4.1
2022-12-26T09:58:09.451Z,9.7
2022-12-26T10:03:09.362Z,9.7
2022-12-26T10:08:09.467Z,6.7
2022-12-26T10:13:09.358Z,8.6
2022-12-26T10:18:09.456Z,7.7
2022-12-26T10:23:09.370Z,11.5
2022-12-26T10:28:09.467Z,7.2
2022-12-26T10:33:09.358Z,7.2
2022-12-26T10:38:09.463Z,6.6
2022-12-26T10:43:09.375Z,6.5
2022-12-26T10:48:09.414Z,6.3
2022-12-26T10:53:09.368Z,5.0
2022-12-26T10:58:09.340Z,8.9
2022-12-26T11:03:09.509Z,8.9
2022-12-26T11:08:09.471Z,4.5
2022-12-26T11:13:09.372Z,7.5
2022-12-26T11:18:09.423Z,8.0
2022-12-26T11:23:09.378Z,7.0
2022-12-26T11:28:09.472Z,4.6
2022-12-26T11:33:14.150Z,4.6
2022-12-26T11:38:09.432Z,6.6
2022-12-26T11:43:09.378Z,8.2
2022-12-26T11:48:09.438Z,7.7
2022-12-26T11:53:09.388Z,5.1
2022-12-26T11:58:09.452Z,9.5
2022-12-26T12:03:09.395Z,9.5
2022-12-26T12:08:09.433Z,8.9
2022-12-26T12:13:09.387Z,5.7
2022-12-26T12:18:09.464Z,5.5
2022-12-26T12:23:09.385Z,7.4
2022-12-26T12:28:09.488Z,5.1
2022-12-26T12:33:09.390Z,5.1
2022-12-26T12:38:09.442Z,7.4
2022-12-26T12:43:09.412Z,6.2
2022-12-26T12:48:09.497Z,6.5
2022-12-26T12:53:09.385Z,3.2
2022-12-26T12:58:09.484Z,5.5
2022-12-26T13:03:09.430Z,5.5
2022-12-26T13:08:09.475Z,6.7
2022-12-26T13:13:09.393Z,6.9
2022-12-26T13:18:09.480Z,4.2
2022-12-26T13:23:09.395Z,6.2
2022-12-26T13:28:09.846Z,4.1
2022-12-26T13:33:09.391Z,4.1
2022-12-26T13:38:09.455Z,7.3
2022-12-26T13:43:09.398Z,5.8
2022-12-26T13:48:09.452Z,4.7
2022-12-26T13:53:09.399Z,4.5
2022-12-26T13:58:09.458Z,3.6
2022-12-26T14:03:19.216Z,3.6
2022-12-26T14:08:09.463Z,2.8
2022-12-26T14:13:09.398Z,2.8
2022-12-26T14:18:09.486Z,2.7
2022-12-26T14:23:09.404Z,2.3
2022-12-26T14:28:09.510Z,2.2
2022-12-26T14:33:09.399Z,2.2
2022-12-26T14:38:09.457Z,4.5
2022-12-26T14:43:09.399Z,1.7
2022-12-26T14:48:09.507Z,3.9
2022-12-26T14:53:09.415Z,4.3
2022-12-26T14:58:09.458Z,2.1
2022-12-26T15:03:09.454Z,2.1
2022-12-26T15:08:09.460Z,2.4
2022-12-26T15:13:09.411Z,4.4
2022-12-26T15:18:09.459Z,7.2
2022-12-26T15:23:09.412Z,3.3
2022-12-26T15:28:15.517Z,3.4
2022-12-26T15:33:09.411Z,3.4
2022-12-26T15:38:09.510Z,3.7
2022-12-26T15:43:09.431Z,6.2
2022-12-26T15:48:09.482Z,4.3
2022-12-26T15:53:09.457Z,6.6
2022-12-26T15:58:09.527Z,3.9
2022-12-26T16:03:09.502Z,3.9
2022-12-26T16:08:09.529Z,4.8
2022-12-26T16:13:09.448Z,5.1
2022-12-26T16:18:09.508Z,8.4
2022-12-26T16:23:09.421Z,4.6
2022-12-26T16:28:09.536Z,3.9
2022-12-26T16:33:09.444Z,3.9
2022-12-26T16:38:09.511Z,6.3
2022-12-26T16:43:09.436Z,6.1
2022-12-26T16:48:09.525Z,4.0
2022-12-26T16:53:09.455Z,3.5
2022-12-26T16:58:09.528Z,4.8
2022-12-26T17:03:09.594Z,4.8
2022-12-26T17:08:09.543Z,5.1
2022-12-26T17:18:09.507Z,6.8
2022-12-26T17:23:09.458Z,8.1
2022-12-26T17:28:09.578Z,5.3
2022-12-26T17:33:09.455Z,5.3
2022-12-26T17:38:09.518Z,4.3
2022-12-26T17:43:09.464Z,8.0
2022-12-26T17:48:09.516Z,5.8
2022-12-26T17:53:09.445Z,3.8
2022-12-26T17:58:09.509Z,8.0
2022-12-26T18:03:09.488Z,8.0
2022-12-26T18:08:09.550Z,4.6
2022-12-26T18:13:09.464Z,5.3
2022-12-26T18:18:09.519Z,6.1
2022-12-26T18:23:09.479Z,4.3
2022-12-26T18:28:09.576Z,6.4
2022-12-26T18:33:09.461Z,6.4
2022-12-26T18:43:09.486Z,4.3
2022-12-26T18:48:09.566Z,3.2
2022-12-26T18:53:09.476Z,5.9
2022-12-26T18:58:09.558Z,5.7
2022-12-26T19:03:09.483Z,5.7
2022-12-26T19:08:09.570Z,4.0
2022-12-26T19:13:09.491Z,1.9
2022-12-26T19:18:09.570Z,6.4
2022-12-26T19:23:09.490Z,3.6
2022-12-26T19:28:09.623Z,4.7
2022-12-26T19:33:09.507Z,4.7
2022-12-26T19:38:09.540Z,4.7
2022-12-26T19:43:09.491Z,3.3
2022-12-26T19:48:09.581Z,3.0
2022-12-26T19:53:09.495Z,3.3
2022-12-26T19:58:09.543Z,2.8
2022-12-26T20:03:09.551Z,2.8
2022-12-26T20:08:09.582Z,4.4
2022-12-26T20:13:09.485Z,2.7
2022-12-26T20:18:14.623Z,4.7
2022-12-26T20:23:09.504Z,2.5
2022-12-26T20:28:09.595Z,2.5
2022-12-26T20:33:09.498Z,2.5
2022-12-26T20:38:09.594Z,3.6
2022-12-26T20:43:09.517Z,2.4
2022-12-26T20:48:09.595Z,4.3
2022-12-26T20:53:09.512Z,2.0
2022-12-26T20:58:09.595Z,2.9
2022-12-26T21:03:09.523Z,2.9
2022-12-26T21:08:09.593Z,2.0
2022-12-26T21:13:09.508Z,2.1
2022-12-26T21:18:09.591Z,4.1
2022-12-26T21:23:09.507Z,3.0
2022-12-26T21:28:09.611Z,3.7
2022-12-26T21:33:09.543Z,3.7
2022-12-26T21:38:09.562Z,2.2
2022-12-26T21:43:09.523Z,2.5
2022-12-26T21:48:09.558Z,2.8
2022-12-26T21:53:09.504Z,5.6
2022-12-26T21:58:09.559Z,2.9
2022-12-26T22:08:09.564Z,3.6
2022-12-26T22:13:09.522Z,5.9
2022-12-26T22:18:09.566Z,2.9
2022-12-26T22:23:09.553Z,5.4
2022-12-26T22:33:09.509Z,5.2
2022-12-26T22:38:09.571Z,4.9
2022-12-26T22:43:09.530Z,5.6
2022-12-26T22:48:09.570Z,5.2
2022-12-26T22:53:09.516Z,5.6
2022-12-26T22:58:09.569Z,6.3
2022-12-26T23:03:09.576Z,6.3
2022-12-26T23:08:09.578Z,7.4
2022-12-26T23:13:09.527Z,4.5
2022-12-26T23:18:09.579Z,4.4
2022-12-26T23:23:09.528Z,3.6
2022-12-26T23:28:09.639Z,4.1
2022-12-26T23:33:09.512Z,4.1
2022-12-26T23:38:09.592Z,4.4
2022-12-26T23:43:09.566Z,5.9
2022-12-26T23:48:09.586Z,6.4
2022-12-26T23:53:09.526Z,6.5
2022-12-26T23:58:09.582Z,7.0
